Time;durP1;ratioP1;P1;durP2;ratioP2;P2;SDS_P1;SDS_P2;PMS_P1;PMS_P2;Temp;Humidity;BMP_temperature;BMP_pressure;BME280_temperature;BME280_humidity;BME280_pressure;Samples;Min_cycle;Max_cycle;Signal;HPM_P1;HPM_P2
2023/10/11 00:01:31;;;;;;;10.60;5.87;;;16.20;99.90;;;;;;5069503;28;20310;-44
2023/10/11 00:04:03;;;;;;;10.90;5.77;;;16.20;99.90;;;;;;5090109;28;20194;-48
2023/10/11 00:06:33;;;;;;;11.67;6.70;;;16.20;99.90;;;;;;5069337;28;20226;-50
2023/10/11 00:09:00;;;;;;;11.87;6.00;;;16.10;99.90;;;;;;5083354;28;20214;-44
2023/10/11 00:11:27;;;;;;;10.97;5.70;;;16.10;99.90;;;;;;5054192;28;20279;-50
2023/10/11 00:13:55;;;;;;;8.27;6.03;;;16.20;99.90;;;;;;5091282;28;20273;-44
2023/10/11 00:16:22;;;;;;;7.97;5.80;;;16.10;99.90;;;;;;5068659;28;20198;-48
2023/10/11 00:18:49;;;;;;;12.20;5.80;;;16.10;99.90;;;;;;5070015;28;20267;-46
2023/10/11 00:21:17;;;;;;;8.60;5.80;;;16.10;99.90;;;;;;5073175;28;20293;-49
2023/10/11 00:23:46;;;;;;;10.37;5.53;;;16.10;99.90;;;;;;5071963;28;20225;-44
2023/10/11 00:26:14;;;;;;;8.10;5.90;;;16.10;99.90;;;;;;5083629;28;20206;-51
2023/10/11 00:28:49;;;;;;;8.83;5.70;;;16.10;99.90;;;;;;5043552;28;20308;-52
2023/10/11 00:31:18;;;;;;;8.73;5.63;;;16.10;99.90;;;;;;5074423;28;20202;-47
2023/10/11 00:33:46;;;;;;;10.93;5.70;;;16.00;99.90;;;;;;5058732;28;20212;-46
2023/10/11 00:36:15;;;;;;;7.47;5.67;;;16.00;99.90;;;;;;5075119;28;20194;-48
2023/10/11 00:38:47;;;;;;;10.23;6.03;;;16.00;99.90;;;;;;5078935;28;20312;-47
2023/10/11 00:41:17;;;;;;;9.30;5.40;;;16.00;99.90;;;;;;5081610;28;20194;-48
2023/10/11 00:43:49;;;;;;;11.83;5.17;;;16.00;99.90;;;;;;5038152;28;20683;-48
2023/10/11 00:46:19;;;;;;;9.47;5.23;;;16.00;99.90;;;;;;5072766;28;20660;-49
2023/10/11 00:48:53;;;;;;;9.33;5.53;;;15.90;99.90;;;;;;5054316;28;20226;-52
2023/10/11 00:51:23;;;;;;;12.20;5.57;;;15.90;99.90;;;;;;5081746;28;20204;-46
2023/10/11 00:53:52;;;;;;;9.43;5.60;;;15.90;99.90;;;;;;5061967;28;20275;-50
2023/10/11 00:56:21;;;;;;;7.40;5.27;;;15.90;99.90;;;;;;5078874;28;20213;-49
2023/10/11 00:58:49;;;;;;;8.27;5.50;;;15.90;99.90;;;;;;5053178;28;20607;-54
2023/10/11 01:01:17;;;;;;;9.60;5.90;;;15.90;99.90;;;;;;5069464;28;20301;-46
2023/10/11 01:03:45;;;;;;;8.67;5.40;;;15.90;99.90;;;;;;5057309;28;20198;-49
2023/10/11 01:06:12;;;;;;;8.87;5.23;;;15.90;99.90;;;;;;5080464;28;20196;-46
2023/10/11 01:08:39;;;;;;;6.80;5.50;;;15.90;99.90;;;;;;5061183;28;20202;-48
2023/10/11 01:11:11;;;;;;;9.73;6.30;;;15.80;99.90;;;;;;5075757;28;20289;-46
2023/10/11 01:13:41;;;;;;;7.37;5.10;;;15.80;99.90;;;;;;5080531;28;20190;-49
2023/10/11 01:16:10;;;;;;;10.27;5.53;;;15.80;99.90;;;;;;5048978;28;20708;-48
2023/10/11 01:18:37;;;;;;;11.83;5.33;;;15.80;99.90;;;;;;5076208;28;20216;-52
2023/10/11 01:21:07;;;;;;;8.37;5.03;;;15.80;99.90;;;;;;5083103;28;20311;-47
2023/10/11 01:23:34;;;;;;;10.30;5.30;;;15.80;99.90;;;;;;5073142;28;20676;-49
2023/10/11 01:26:07;;;;;;;8.37;5.23;;;15.70;99.90;;;;;;5079094;28;20269;-45
2023/10/11 01:28:35;;;;;;;9.17;5.47;;;15.70;99.90;;;;;;5081210;28;20267;-52
2023/10/11 01:31:08;;;;;;;7.60;4.80;;;15.70;99.90;;;;;;5048427;28;20414;-45
2023/10/11 01:33:36;;;;;;;8.07;5.57;;;15.70;99.90;;;;;;5080586;28;20712;-52
2023/10/11 01:36:09;;;;;;;8.50;5.27;;;15.70;99.90;;;;;;5075592;28;20201;-47
2023/10/11 01:38:46;;;;;;;8.33;5.30;;;15.60;99.90;;;;;;5073201;28;20260;-46
2023/10/11 01:41:15;;;;;;;9.13;6.00;;;15.60;99.90;;;;;;5071194;28;20647;-45
2023/10/11 01:43:45;;;;;;;8.33;5.20;;;15.70;99.90;;;;;;5078328;28;20277;-49
2023/10/11 01:46:13;;;;;;;9.47;5.70;;;15.70;99.90;;;;;;5078990;28;20190;-48
2023/10/11 01:48:40;;;;;;;10.37;4.97;;;15.70;99.90;;;;;;5048634;28;20202;-50
2023/10/11 01:51:09;;;;;;;7.47;5.53;;;15.70;99.90;;;;;;5078944;28;20209;-46
2023/10/11 01:53:36;;;;;;;9.37;4.93;;;15.60;99.90;;;;;;5072946;28;20233;-48
2023/10/11 01:56:04;;;;;;;7.33;5.30;;;15.60;99.90;;;;;;5056586;28;20213;-45
2023/10/11 01:58:31;;;;;;;8.50;5.77;;;15.60;99.90;;;;;;5073151;28;20217;-48
2023/10/11 02:00:57;;;;;;;8.87;5.33;;;15.70;99.90;;;;;;5060294;28;20214;-49
2023/10/11 02:03:25;;;;;;;13.70;5.63;;;15.60;99.90;;;;;;5048821;28;20194;-43
2023/10/11 02:05:51;;;;;;;9.37;5.60;;;15.60;99.90;;;;;;5067319;28;20202;-46
2023/10/11 02:08:20;;;;;;;8.43;5.30;;;15.60;99.90;;;;;;5081096;28;20182;-45
2023/10/11 02:10:46;;;;;;;9.53;5.87;;;15.50;99.90;;;;;;5075735;28;20216;-47
2023/10/11 02:13:15;;;;;;;9.83;5.67;;;15.50;99.90;;;;;;5082177;28;20198;-50
2023/10/11 02:15:46;;;;;;;8.00;6.13;;;15.50;99.90;;;;;;5078263;28;20198;-46
2023/10/11 02:18:13;;;;;;;13.13;5.50;;;15.50;99.90;;;;;;5051818;28;20205;-48
2023/10/11 02:20:45;;;;;;;8.03;5.20;;;15.50;99.90;;;;;;5084163;28;20268;-48
2023/10/11 02:23:12;;;;;;;11.13;6.13;;;15.50;99.90;;;;;;5074908;28;20206;-49
2023/10/11 02:25:42;;;;;;;12.00;5.27;;;15.50;99.90;;;;;;5075094;28;20225;-43
2023/10/11 02:28:10;;;;;;;10.67;5.17;;;15.50;99.90;;;;;;5075853;28;20357;-49
2023/10/11 02:30:38;;;;;;;9.87;5.03;;;15.40;99.90;;;;;;5072473;28;20221;-48
2023/10/11 02:33:07;;;;;;;7.77;5.27;;;15.50;99.90;;;;;;5067844;28;20243;-49
2023/10/11 02:35:49;;;;;;;10.50;5.67;;;15.40;99.90;;;;;;5058058;28;20218;-44
2023/10/11 02:38:21;;;;;;;8.80;5.87;;;15.40;99.90;;;;;;5054314;28;20202;-45
2023/10/11 02:40:55;;;;;;;8.37;5.73;;;15.40;99.90;;;;;;5076621;28;20225;-44
2023/10/11 02:43:24;;;;;;;8.73;6.23;;;15.40;99.90;;;;;;5080676;28;20181;-43
2023/10/11 02:45:51;;;;;;;9.17;6.60;;;15.40;99.90;;;;;;5084109;28;20202;-45
2023/10/11 02:48:19;;;;;;;8.10;5.27;;;15.40;99.90;;;;;;5073464;28;20213;-45
2023/10/11 02:50:47;;;;;;;10.03;6.37;;;15.40;99.90;;;;;;5053812;28;21426;-45
2023/10/11 02:53:22;;;;;;;7.97;5.90;;;15.40;99.90;;;;;;5071618;28;20285;-47
2023/10/11 02:55:57;;;;;;;8.70;5.10;;;15.40;99.90;;;;;;5085877;28;20539;-51
2023/10/11 02:58:29;;;;;;;7.50;5.60;;;15.40;99.90;;;;;;5081335;28;20185;-43
2023/10/11 03:00:59;;;;;;;10.50;6.27;;;15.50;99.90;;;;;;5073070;28;20249;-48
2023/10/11 03:03:27;;;;;;;9.33;5.90;;;15.40;99.90;;;;;;5064221;28;20828;-44
2023/10/11 03:05:56;;;;;;;6.90;5.63;;;15.40;99.90;;;;;;5048972;28;20209;-52
2023/10/11 03:08:26;;;;;;;6.23;5.30;;;15.50;99.90;;;;;;5079694;28;20319;-44
2023/10/11 03:10:56;;;;;;;8.23;5.50;;;15.50;99.90;;;;;;5059684;28;20213;-51
2023/10/11 03:13:29;;;;;;;5.80;5.20;;;15.50;99.90;;;;;;5078078;28;20220;-43
2023/10/11 03:15:56;;;;;;;10.30;6.33;;;15.50;99.90;;;;;;5080959;28;20198;-50
2023/10/11 03:18:25;;;;;;;9.53;6.47;;;15.50;99.90;;;;;;5081184;28;20189;-47
2023/10/11 03:20:58;;;;;;;8.13;6.33;;;15.50;99.90;;;;;;5075106;28;20214;-49
2023/10/11 03:23:27;;;;;;;9.87;6.67;;;15.50;99.90;;;;;;5080791;28;20186;-43
2023/10/11 03:25:56;;;;;;;12.00;6.57;;;15.50;99.90;;;;;;5071099;28;20311;-49
2023/10/11 03:28:27;;;;;;;13.63;6.73;;;15.50;99.90;;;;;;5080476;28;20203;-45
2023/10/11 03:30:55;;;;;;;9.27;6.20;;;15.50;99.90;;;;;;5082345;28;20997;-51
2023/10/11 03:33:22;;;;;;;12.40;6.87;;;15.40;99.90;;;;;;5078858;28;20190;-44
2023/10/11 03:35:50;;;;;;;9.17;6.10;;;15.40;99.90;;;;;;5081258;28;20263;-46
2023/10/11 03:38:21;;;;;;;10.27;6.73;;;15.40;99.90;;;;;;5067606;28;20194;-45
2023/10/11 03:41:10;;;;;;;8.80;6.00;;;15.40;99.90;;;;;;5083003;28;20228;-47
2023/10/11 03:43:40;;;;;;;9.57;6.40;;;15.40;99.90;;;;;;5072301;28;20279;-46
2023/10/11 03:46:09;;;;;;;9.47;6.17;;;15.40;99.90;;;;;;5078845;28;20198;-48
2023/10/11 03:48:44;;;;;;;10.83;6.00;;;15.40;99.90;;;;;;5083215;28;20277;-46
2023/10/11 03:51:11;;;;;;;8.90;6.67;;;15.40;99.90;;;;;;5048993;28;21271;-46
2023/10/11 03:53:39;;;;;;;8.80;6.47;;;15.40;99.90;;;;;;5075158;28;20186;-44
2023/10/11 03:56:06;;;;;;;13.33;7.53;;;15.40;99.90;;;;;;5071416;28;20268;-52
2023/10/11 03:58:37;;;;;;;11.37;6.77;;;15.40;99.90;;;;;;5075984;28;20205;-44
2023/10/11 04:01:13;;;;;;;9.17;6.50;;;15.40;99.90;;;;;;5079856;28;20225;-49
2023/10/11 04:03:41;;;;;;;11.77;6.80;;;15.30;99.90;;;;;;5081202;28;20224;-44
2023/10/11 04:06:19;;;;;;;12.90;6.90;;;15.40;99.90;;;;;;5076779;28;20201;-49
2023/10/11 04:08:54;;;;;;;10.63;6.90;;;15.40;99.90;;;;;;5051924;28;20197;-47
2023/10/11 04:11:30;;;;;;;12.17;7.03;;;15.40;99.90;;;;;;5080583;28;20320;-47
2023/10/11 04:13:57;;;;;;;9.27;6.77;;;15.40;99.90;;;;;;5055346;28;20865;-44
2023/10/11 04:16:28;;;;;;;9.00;6.70;;;15.40;99.90;;;;;;5077546;28;20197;-49
2023/10/11 04:18:55;;;;;;;7.87;6.50;;;15.40;99.90;;;;;;5067045;28;20193;-44
2023/10/11 04:21:38;;;;;;;11.27;6.90;;;15.40;99.90;;;;;;5075962;28;20205;-50
2023/10/11 04:24:07;;;;;;;10.43;6.60;;;15.40;99.90;;;;;;5053129;28;20214;-45
2023/10/11 04:26:36;;;;;;;14.77;7.17;;;15.30;99.90;;;;;;5077630;28;20198;-45
2023/10/11 04:29:17;;;;;;;12.63;6.90;;;15.40;99.90;;;;;;5072577;28;20266;-47
2023/10/11 04:31:55;;;;;;;12.43;7.20;;;15.40;99.90;;;;;;5076498;28;20190;-44
2023/10/11 04:34:31;;;;;;;11.43;6.47;;;15.40;99.90;;;;;;5073309;28;20276;-51
2023/10/11 04:36:59;;;;;;;11.23;6.90;;;15.40;99.90;;;;;;5073733;28;20227;-45
2023/10/11 04:39:33;;;;;;;10.57;6.80;;;15.40;99.90;;;;;;5049150;28;20228;-51
2023/10/11 04:42:02;;;;;;;12.70;7.30;;;15.40;99.90;;;;;;5067529;28;20256;-47
2023/10/11 04:44:35;;;;;;;14.17;7.47;;;15.40;99.90;;;;;;5069479;28;20218;-44
2023/10/11 04:47:04;;;;;;;9.90;6.90;;;15.40;99.90;;;;;;5076468;28;20678;-43
2023/10/11 04:49:31;;;;;;;12.80;7.13;;;15.40;99.90;;;;;;5070095;28;20216;-46
2023/10/11 04:51:59;;;;;;;8.37;6.40;;;15.40;99.90;;;;;;5077343;28;20674;-46
2023/10/11 04:54:36;;;;;;;9.47;6.87;;;15.40;99.90;;;;;;5051179;28;20234;-53
2023/10/11 04:57:07;;;;;;;11.80;6.77;;;15.40;99.90;;;;;;5084853;28;20202;-45
2023/10/11 04:59:36;;;;;;;14.13;6.57;;;15.40;99.90;;;;;;5070826;28;21068;-47
2023/10/11 05:02:16;;;;;;;14.43;7.50;;;15.40;99.90;;;;;;5074663;28;20198;-44
2023/10/11 05:04:44;;;;;;;12.90;6.83;;;15.40;99.90;;;;;;5082375;28;20465;-44
2023/10/11 05:07:13;;;;;;;10.27;6.73;;;15.30;99.90;;;;;;5080045;28;20280;-53
2023/10/11 05:09:41;;;;;;;10.50;6.73;;;15.30;99.90;;;;;;5039337;28;20241;-46
2023/10/11 05:12:12;;;;;;;9.93;6.73;;;15.30;99.90;;;;;;5089965;28;20655;-51
2023/10/11 05:14:56;;;;;;;11.07;7.20;;;15.30;99.90;;;;;;5074076;28;20254;-45
2023/10/11 05:17:38;;;;;;;11.00;7.07;;;15.30;99.90;;;;;;5059608;28;20225;-46
2023/10/11 05:20:23;;;;;;;9.37;6.73;;;15.20;99.90;;;;;;5081856;28;20285;-49
2023/10/11 05:22:49;;;;;;;12.47;7.13;;;15.30;99.90;;;;;;5073620;28;20276;-44
2023/10/11 05:28:07;;;;;;;13.47;7.37;;;15.20;99.90;;;;;;5080255;28;20198;-45
2023/10/11 05:30:34;;;;;;;12.20;6.73;;;15.20;99.90;;;;;;5057040;28;20236;-45
2023/10/11 05:33:31;;;;;;;14.97;7.10;;;15.20;99.90;;;;;;5072139;28;20198;-51
2023/10/11 05:36:16;;;;;;;9.37;6.97;;;15.20;99.90;;;;;;5071740;28;20233;-55
2023/10/11 05:52:29;;;;;;;11.93;7.13;;;15.20;99.90;;;;;;5077049;28;20202;-43
2023/10/11 05:54:56;;;;;;;10.67;7.67;;;15.20;99.90;;;;;;5079213;28;20317;-50
2023/10/11 05:57:25;;;;;;;10.83;7.30;;;15.30;99.90;;;;;;5046964;28;20241;-43
2023/10/11 05:59:52;;;;;;;11.43;7.17;;;15.30;99.90;;;;;;5084839;28;20217;-53
2023/10/11 06:02:19;;;;;;;10.10;7.30;;;15.30;99.90;;;;;;5087443;28;20225;-44
2023/10/11 06:04:48;;;;;;;12.10;7.23;;;15.30;99.90;;;;;;5066768;28;20277;-53
2023/10/11 06:07:19;;;;;;;10.33;7.43;;;15.30;99.90;;;;;;5083665;28;20197;-44
2023/10/11 06:09:46;;;;;;;9.43;6.73;;;15.40;99.90;;;;;;5052100;28;20414;-43
2023/10/11 06:12:23;;;;;;;8.37;7.07;;;15.40;99.90;;;;;;5054543;28;20551;-53
2023/10/11 06:14:51;;;;;;;15.13;7.00;;;15.50;99.90;;;;;;5086952;28;20221;-45
2023/10/11 06:17:21;;;;;;;10.32;8.00;;;15.50;99.90;;;;;;5069325;28;21247;-46
2023/10/11 06:19:54;;;;;;;13.90;7.50;;;15.60;99.90;;;;;;5073042;28;20221;-53
2023/10/11 06:22:24;;;;;;;13.57;7.57;;;15.60;99.90;;;;;;5071731;28;20194;-45
2023/10/11 06:24:51;;;;;;;14.03;8.73;;;15.60;99.90;;;;;;5072722;28;20276;-55
2023/10/11 06:30:09;;;;;;;10.13;7.03;;;15.60;99.90;;;;;;5038648;28;20222;-44
2023/10/11 06:32:36;;;;;;;10.90;7.03;;;15.60;99.90;;;;;;5065397;28;20202;-51
2023/10/11 06:35:06;;;;;;;13.03;7.53;;;15.60;99.90;;;;;;5074811;28;20246;-47
2023/10/11 06:37:36;;;;;;;14.57;7.07;;;15.60;99.90;;;;;;5062784;28;20198;-50
2023/10/11 06:40:13;;;;;;;14.77;7.63;;;15.70;99.90;;;;;;5072638;28;20304;-45
2023/10/11 06:42:42;;;;;;;15.57;7.20;;;15.70;99.90;;;;;;5076593;28;20908;-45
2023/10/11 06:45:16;;;;;;;12.80;7.50;;;15.70;99.90;;;;;;5062548;28;20229;-45
2023/10/11 06:47:47;;;;;;;12.30;7.50;;;15.80;99.90;;;;;;5078620;28;20196;-46
2023/10/11 06:50:16;;;;;;;13.70;7.63;;;15.80;99.90;;;;;;5059739;28;20227;-49
2023/10/11 06:52:44;;;;;;;12.10;7.03;;;15.80;99.90;;;;;;5079728;28;20197;-45
2023/10/11 06:55:16;;;;;;;12.90;7.67;;;15.80;99.90;;;;;;5061401;28;20603;-48
2023/10/11 06:57:50;;;;;;;12.13;7.83;;;15.80;99.90;;;;;;5067426;28;20247;-46
2023/10/11 07:00:24;;;;;;;10.13;6.90;;;15.90;99.90;;;;;;5058291;28;21137;-47
2023/10/11 07:03:06;;;;;;;13.67;8.07;;;15.90;99.90;;;;;;5088096;28;20193;-44
2023/10/11 07:05:46;;;;;;;11.07;7.23;;;15.90;99.90;;;;;;5079152;28;20308;-43
2023/10/11 07:08:17;;;;;;;14.57;7.27;;;15.90;99.90;;;;;;5079461;28;20220;-45
2023/10/11 07:10:46;;;;;;;11.77;7.60;;;15.90;99.90;;;;;;5076659;28;20224;-48
2023/10/11 07:13:14;;;;;;;14.20;7.97;;;16.00;99.90;;;;;;5069925;28;20190;-45
2023/10/11 07:15:44;;;;;;;12.70;7.90;;;16.00;99.90;;;;;;5056732;28;20202;-47
2023/10/11 07:18:21;;;;;;;10.27;7.27;;;16.00;99.90;;;;;;5083543;28;20239;-48
2023/10/11 07:21:07;;;;;;;12.33;7.13;;;16.00;99.90;;;;;;5076957;28;20228;-46
2023/10/11 07:23:55;;;;;;;12.90;7.47;;;16.00;99.90;;;;;;5072820;28;20210;-47
2023/10/11 07:29:08;;;;;;;14.53;7.60;;;16.10;99.90;;;;;;5069002;28;20221;-46
2023/10/11 07:35:05;;;;;;;11.63;7.20;;;16.10;99.90;;;;;;5073886;28;20330;-46
2023/10/11 07:37:45;;;;;;;16.03;7.47;;;16.20;99.90;;;;;;5071723;28;20494;-46
2023/10/11 07:40:21;;;;;;;13.40;7.40;;;16.20;99.90;;;;;;5076316;28;20582;-49
2023/10/11 07:42:58;;;;;;;11.83;7.80;;;16.20;99.90;;;;;;5074418;28;20691;-45
2023/10/11 07:45:47;;;;;;;16.90;8.47;;;16.20;99.90;;;;;;5046570;28;20302;-47
2023/10/11 07:48:32;;;;;;;17.50;8.33;;;16.20;99.90;;;;;;5080602;28;20678;-45
2023/10/11 07:51:09;;;;;;;17.97;8.00;;;16.20;99.90;;;;;;5085149;28;20220;-45
2023/10/11 07:53:44;;;;;;;14.67;8.40;;;16.20;99.90;;;;;;5081032;28;20266;-45
2023/10/11 07:56:15;;;;;;;12.73;7.40;;;16.30;99.90;;;;;;5070196;28;20198;-47
2023/10/11 07:58:59;;;;;;;12.17;8.03;;;16.30;99.90;;;;;;5056355;28;20240;-44
2023/10/11 08:01:42;;;;;;;17.67;8.10;;;16.30;99.90;;;;;;5043354;28;20306;-45
2023/10/11 08:04:17;;;;;;;20.17;8.23;;;16.30;99.90;;;;;;5084191;28;20189;-49
2023/10/11 08:06:45;;;;;;;14.37;7.77;;;16.30;99.90;;;;;;5083612;28;20751;-49
2023/10/11 08:09:19;;;;;;;13.70;8.00;;;16.30;99.90;;;;;;5081622;28;20228;-46
2023/10/11 08:11:52;;;;;;;14.97;8.30;;;16.40;99.90;;;;;;5076893;28;20651;-45
2023/10/11 08:14:22;;;;;;;12.53;7.67;;;16.40;99.90;;;;;;5082341;28;20201;-47
2023/10/11 08:16:50;;;;;;;19.57;7.80;;;16.40;99.90;;;;;;5051142;28;20229;-48
2023/10/11 08:19:18;;;;;;;11.87;7.47;;;16.40;99.90;;;;;;5082283;28;20218;-49
2023/10/11 08:21:54;;;;;;;10.37;8.07;;;16.40;99.90;;;;;;5082868;28;20214;-47
2023/10/11 08:24:45;;;;;;;12.80;7.80;;;16.40;99.90;;;;;;5069886;28;20216;-47
2023/10/11 08:27:16;;;;;;;11.10;8.47;;;16.50;99.90;;;;;;5071369;28;20205;-47
2023/10/11 08:29:52;;;;;;;14.37;7.03;;;16.50;99.90;;;;;;5079881;28;20640;-46
2023/10/11 08:32:29;;;;;;;16.03;8.07;;;16.50;99.90;;;;;;5047942;28;20902;-46
2023/10/11 08:35:00;;;;;;;14.60;7.90;;;16.60;99.90;;;;;;5083569;28;20627;-47
2023/10/11 08:37:32;;;;;;;12.40;8.20;;;16.60;99.90;;;;;;5080482;28;20894;-47
2023/10/11 08:40:10;;;;;;;17.33;8.43;;;16.60;99.90;;;;;;5072467;28;20218;-48
2023/10/11 08:42:38;;;;;;;15.27;8.00;;;16.70;99.90;;;;;;5058189;28;20666;-47
2023/10/11 08:45:14;;;;;;;14.67;8.90;;;16.70;99.90;;;;;;5073434;28;20226;-46
2023/10/11 08:47:43;;;;;;;11.57;7.60;;;16.70;99.90;;;;;;5065645;28;20209;-47
2023/10/11 08:50:17;;;;;;;16.47;7.80;;;16.80;99.90;;;;;;5061428;28;20208;-47
2023/10/11 08:52:45;;;;;;;19.07;8.73;;;16.80;99.90;;;;;;5088466;28;20594;-48
2023/10/11 08:55:19;;;;;;;13.80;8.47;;;16.80;99.90;;;;;;5071018;28;20989;-47
2023/10/11 08:57:48;;;;;;;14.83;8.60;;;16.80;99.90;;;;;;5080872;28;20223;-47
2023/10/11 09:00:29;;;;;;;18.93;8.47;;;16.90;99.90;;;;;;5082252;28;20235;-45
2023/10/11 09:02:58;;;;;;;16.20;8.27;;;16.80;99.90;;;;;;5051019;28;20202;-44
2023/10/11 09:05:44;;;;;;;15.30;8.50;;;16.90;99.90;;;;;;5087339;28;20209;-48
2023/10/11 09:08:33;;;;;;;17.03;9.07;;;16.80;99.90;;;;;;5081286;28;20966;-45
2023/10/11 09:11:28;;;;;;;11.73;7.53;;;16.80;99.90;;;;;;5072898;28;20205;-45
2023/10/11 09:16:57;;;;;;;12.93;8.27;;;16.80;99.90;;;;;;5078686;28;20209;-47
2023/10/11 09:19:25;;;;;;;14.17;8.43;;;16.90;99.90;;;;;;5056642;28;20719;-46
2023/10/11 09:22:02;;;;;;;14.87;8.60;;;16.90;99.90;;;;;;5081171;28;20333;-47
2023/10/11 09:24:38;;;;;;;10.93;7.53;;;16.90;99.90;;;;;;5080424;28;20193;-45
2023/10/11 09:27:25;;;;;;;16.03;9.13;;;16.90;99.90;;;;;;5069252;28;20213;-46
2023/10/11 09:29:52;;;;;;;17.73;8.20;;;16.90;99.90;;;;;;5062208;28;20708;-46
2023/10/11 09:32:27;;;;;;;17.07;8.03;;;16.90;99.90;;;;;;5081132;28;20194;-45
2023/10/11 09:34:54;;;;;;;14.13;8.13;;;17.00;99.90;;;;;;5040570;28;20290;-46
2023/10/11 09:37:21;;;;;;;13.33;7.90;;;17.00;99.90;;;;;;5070509;28;20281;-46
2023/10/11 09:39:51;;;;;;;14.30;8.93;;;17.00;99.90;;;;;;5077770;28;20206;-45
2023/10/11 09:42:22;;;;;;;14.27;7.93;;;17.00;99.90;;;;;;5067802;28;20221;-46
2023/10/11 09:44:57;;;;;;;11.90;8.33;;;17.00;99.90;;;;;;5068259;28;20210;-45
2023/10/11 09:47:31;;;;;;;12.43;7.93;;;16.90;99.90;;;;;;5073044;28;20197;-46
2023/10/11 09:50:05;;;;;;;14.23;8.30;;;16.90;99.90;;;;;;5047937;28;20228;-45
2023/10/11 09:52:38;;;;;;;16.20;8.97;;;16.90;99.90;;;;;;5075652;28;20182;-48
2023/10/11 09:55:17;;;;;;;15.93;9.07;;;16.90;99.90;;;;;;5084507;28;20190;-47
2023/10/11 09:57:56;;;;;;;12.27;8.47;;;16.90;99.90;;;;;;5068732;28;20209;-47
2023/10/11 10:00:35;;;;;;;15.70;8.47;;;16.90;99.90;;;;;;5061587;28;20297;-48
2023/10/11 10:03:06;;;;;;;11.63;9.07;;;16.90;99.90;;;;;;5084575;28;20714;-49
2023/10/11 10:06:06;;;;;;;15.83;9.03;;;16.90;99.90;;;;;;5045734;28;20197;-48
2023/10/11 10:08:33;;;;;;;12.00;9.43;;;16.90;99.90;;;;;;5085616;28;20327;-48
2023/10/11 10:11:02;;;;;;;14.97;9.10;;;16.90;99.90;;;;;;5085127;28;20210;-46
2023/10/11 10:13:37;;;;;;;12.53;8.00;;;16.90;99.90;;;;;;5069289;28;20206;-46
2023/10/11 10:16:04;;;;;;;16.77;8.67;;;16.90;99.90;;;;;;5063931;28;20568;-45
2023/10/11 10:18:35;;;;;;;18.30;10.13;;;16.90;99.90;;;;;;5066421;28;20209;-47
2023/10/11 10:21:05;;;;;;;18.40;10.63;;;16.90;99.90;;;;;;5037756;28;20229;-47
2023/10/11 10:23:40;;;;;;;17.30;8.83;;;16.90;99.90;;;;;;5071157;28;21859;-49
2023/10/11 10:26:38;;;;;;;22.33;8.77;;;16.90;99.90;;;;;;5086644;28;20194;-46
2023/10/11 10:29:11;;;;;;;18.27;9.87;;;16.90;99.90;;;;;;5087405;28;20198;-47
2023/10/11 10:32:06;;;;;;;18.03;9.20;;;16.90;99.90;;;;;;5067521;28;20206;-46
2023/10/11 10:34:33;;;;;;;17.53;9.67;;;16.90;99.90;;;;;;5077626;28;20201;-47
2023/10/11 10:37:05;;;;;;;18.50;9.90;;;16.90;99.90;;;;;;5059364;28;20207;-45
2023/10/11 10:39:48;;;;;;;17.33;9.90;;;16.90;99.90;;;;;;5077781;28;20209;-47
2023/10/11 10:42:17;;;;;;;21.50;10.30;;;16.80;99.90;;;;;;5084109;28;20206;-48
2023/10/11 10:44:52;;;;;;;19.10;10.33;;;16.80;99.90;;;;;;5084188;28;20205;-47
2023/10/11 10:47:28;;;;;;;20.87;11.30;;;16.80;99.90;;;;;;5067652;28;20216;-47
2023/10/11 10:50:03;;;;;;;16.40;10.53;;;16.80;99.90;;;;;;5081352;28;20213;-46
2023/10/11 10:52:30;;;;;;;19.60;10.70;;;16.80;99.90;;;;;;5052976;28;20220;-46
2023/10/11 10:55:01;;;;;;;15.80;10.13;;;16.70;99.90;;;;;;5072932;28;20197;-47
2023/10/11 10:57:31;;;;;;;16.07;10.53;;;16.70;99.90;;;;;;5081426;28;20941;-46
2023/10/11 11:00:08;;;;;;;17.73;11.50;;;16.60;99.90;;;;;;5080275;28;20214;-50
2023/10/11 11:02:35;;;;;;;16.90;11.27;;;16.60;99.90;;;;;;5072105;28;20239;-46
2023/10/11 11:05:13;;;;;;;19.73;11.70;;;16.60;99.90;;;;;;5079095;28;20251;-49
2023/10/11 11:07:47;;;;;;;20.80;11.67;;;16.50;99.90;;;;;;5050548;28;20280;-48
2023/10/11 11:10:20;;;;;;;20.97;11.37;;;16.50;99.90;;;;;;5058822;28;20214;-50
2023/10/11 11:12:47;;;;;;;20.80;12.80;;;16.50;99.90;;;;;;5083341;28;20269;-45
2023/10/11 11:15:20;;;;;;;20.00;12.70;;;16.40;99.90;;;;;;5087674;28;20190;-48
2023/10/11 11:17:51;;;;;;;17.27;12.77;;;16.40;99.90;;;;;;5063318;28;20225;-47
2023/10/11 11:23:06;;;;;;;15.80;12.47;;;16.40;99.90;;;;;;5037486;28;20936;-46
2023/10/11 11:25:34;;;;;;;20.20;13.30;;;16.30;99.90;;;;;;5076706;28;20202;-47
2023/10/11 11:28:08;;;;;;;18.10;13.17;;;16.30;99.90;;;;;;5087253;28;20200;-46
2023/10/11 11:30:36;;;;;;;24.20;14.07;;;16.30;99.90;;;;;;5084072;28;20236;-51
2023/10/11 11:33:13;;;;;;;18.07;12.57;;;16.30;99.90;;;;;;5064714;28;20333;-47
2023/10/11 11:35:50;;;;;;;19.30;13.17;;;16.40;99.90;;;;;;5082199;28;20198;-48
2023/10/11 11:38:21;;;;;;;20.90;12.67;;;16.40;99.90;;;;;;5056900;28;20186;-44
2023/10/11 11:40:48;;;;;;;23.27;13.40;;;16.40;99.90;;;;;;5060115;28;20229;-44
2023/10/11 11:43:17;;;;;;;21.73;14.77;;;16.40;99.90;;;;;;5070826;28;20210;-43
2023/10/11 11:45:47;;;;;;;19.60;13.50;;;16.40;99.90;;;;;;5085227;28;20186;-46
2023/10/11 11:48:23;;;;;;;21.97;13.20;;;16.50;99.90;;;;;;5079780;28;20270;-45
2023/10/11 11:50:50;;;;;;;19.63;13.63;;;16.60;99.90;;;;;;5078541;28;20214;-44
2023/10/11 11:53:18;;;;;;;23.47;14.43;;;16.60;99.90;;;;;;5057601;28;20193;-45
2023/10/11 11:55:45;;;;;;;22.37;14.97;;;16.70;99.90;;;;;;5063015;28;20201;-44
2023/10/11 11:58:16;;;;;;;20.30;13.10;;;16.80;99.90;;;;;;5084433;28;20281;-45
2023/10/11 12:00:45;;;;;;;20.77;13.47;;;16.90;99.90;;;;;;5083938;28;20201;-47
2023/10/11 12:03:14;;;;;;;19.37;13.07;;;16.90;99.90;;;;;;5073308;28;20299;-44
2023/10/11 12:05:41;;;;;;;16.03;12.40;;;16.90;99.90;;;;;;5070777;28;20279;-48
2023/10/11 12:08:18;;;;;;;19.80;12.80;;;17.00;99.90;;;;;;5083784;28;20648;-43
2023/10/11 12:10:47;;;;;;;20.30;12.97;;;17.00;99.90;;;;;;5027869;28;20229;-44
2023/10/11 12:13:23;;;;;;;15.90;12.30;;;17.00;99.90;;;;;;5075560;28;20182;-52
2023/10/11 12:15:54;;;;;;;22.57;12.43;;;17.10;99.90;;;;;;5080990;28;20281;-43
2023/10/11 12:18:32;;;;;;;20.23;11.47;;;17.10;99.90;;;;;;5070389;28;20194;-46
2023/10/11 12:21:01;;;;;;;16.63;12.20;;;17.00;99.90;;;;;;5067337;28;20217;-51
2023/10/11 12:23:28;;;;;;;15.50;11.87;;;17.00;99.90;;;;;;5081104;28;20213;-44
2023/10/11 12:25:56;;;;;;;16.93;12.17;;;17.00;99.90;;;;;;5049005;28;20301;-42
2023/10/11 12:28:37;;;;;;;15.97;10.57;;;17.00;99.90;;;;;;5071399;28;20214;-45
2023/10/11 12:31:05;;;;;;;17.70;11.10;;;17.10;99.90;;;;;;5084897;28;20214;-48
2023/10/11 12:33:42;;;;;;;12.67;9.97;;;17.20;99.90;;;;;;5094095;22;20397;-45
2023/10/11 12:36:10;;;;;;;16.10;10.10;;;17.30;99.90;;;;;;5059253;28;20722;-43
2023/10/11 12:38:41;;;;;;;17.20;11.50;;;17.40;99.90;;;;;;5064554;28;20191;-45
2023/10/11 12:41:15;;;;;;;14.77;9.90;;;17.50;99.90;;;;;;5065778;28;20709;-47
2023/10/11 12:43:45;;;;;;;13.80;9.40;;;17.70;99.90;;;;;;5063004;28;20222;-44
2023/10/11 12:46:12;;;;;;;10.70;9.40;;;17.70;99.90;;;;;;5083367;28;20193;-46
2023/10/11 12:48:41;;;;;;;12.10;8.30;;;18.00;99.90;;;;;;5088698;28;20247;-45
2023/10/11 12:51:10;;;;;;;10.03;8.57;;;18.10;99.90;;;;;;5078200;28;20237;-45
2023/10/11 12:53:43;;;;;;;13.47;8.40;;;18.20;99.90;;;;;;5066557;28;20273;-44
2023/10/11 12:56:10;;;;;;;11.27;7.63;;;18.30;99.90;;;;;;5062204;28;20198;-46
2023/10/11 12:58:40;;;;;;;9.83;7.23;;;18.50;99.90;;;;;;5077875;28;20272;-45
2023/10/11 13:01:13;;;;;;;9.80;6.57;;;18.60;99.90;;;;;;5091896;28;20204;-42
2023/10/11 13:03:52;;;;;;;10.40;6.33;;;18.60;99.90;;;;;;5085186;28;20213;-46
2023/10/11 13:06:26;;;;;;;7.87;6.37;;;18.60;99.90;;;;;;5073159;28;20325;-49
2023/10/11 13:08:54;;;;;;;8.57;6.20;;;18.50;99.90;;;;;;5080819;28;20246;-46
2023/10/11 13:11:22;;;;;;;7.97;5.97;;;18.50;99.90;;;;;;5052029;28;20357;-46
2023/10/11 13:13:51;;;;;;;8.67;6.50;;;18.50;99.90;;;;;;5084258;28;20194;-46
2023/10/11 13:16:26;;;;;;;10.73;6.03;;;18.50;99.90;;;;;;5071983;28;20675;-44
2023/10/11 13:18:59;;;;;;;6.47;5.50;;;18.40;99.90;;;;;;5089245;28;20222;-50
2023/10/11 13:21:31;;;;;;;8.57;6.10;;;18.40;99.90;;;;;;5062187;28;20201;-48
2023/10/11 13:24:08;;;;;;;10.57;6.73;;;18.30;99.90;;;;;;5082301;28;20226;-47
2023/10/11 13:26:36;;;;;;;12.80;7.23;;;18.20;99.90;;;;;;5054664;28;21320;-44
2023/10/11 13:29:03;;;;;;;8.60;7.17;;;18.10;99.90;;;;;;5071965;28;20198;-46
2023/10/11 13:31:31;;;;;;;9.13;6.73;;;18.10;99.90;;;;;;5079257;28;20205;-44
2023/10/11 13:34:05;;;;;;;11.53;7.50;;;18.00;99.90;;;;;;5083488;28;20205;-44